CheckWX is a tool to help pilots better visualize weather data.  It is not intended as a substitute for an official pre-flight weather briefing.

13:57:29 UTC

RJNT METAR
Toyama Airport
Toyama, Japan
Current

2 hours ago

RJNT 201200Z VRB01KT 9999 FEW010 BKN015 BKN/// 25/24 Q1011
Observed
Aug-20 @ 12:00 UTC
Wind
  • Variable at 1 KTS
Visibility
10,000+ meters
Flight Rules
MVFR
Cloud Levels
  • Few at 1,000' AGL
  • Broken at 1,500' AGL
Temperature
25°C / 77°F
Dewpoint
24°C / 75°F
Humidity
94%
Altimeter
29.85" Hg
Pressure
1010.92 hPa
Previous

3 hours ago

RJNT 201100Z VRB02KT 9999 FEW015 BKN/// 26/24 Q1010
Observed
Aug-20 @ 11:00 UTC
Wind
  • Variable at 2 KTS
Visibility
10,000+ meters
Flight Rules
VFR
Cloud Levels
  • Few at 1,500' AGL
Temperature
26°C / 79°F
Dewpoint
24°C / 75°F
Humidity
89%
Altimeter
29.82" Hg
Pressure
1009.92 hPa
Previous

4 hours ago

RJNT 201000Z 31003KT 280V340 9999 FEW015 SCT180 BKN/// 26/24 Q1009
Observed
Aug-20 @ 10:00 UTC
Wind
  • 310° at 3 KTS
Visibility
10,000+ meters
Flight Rules
VFR
Cloud Levels
  • Few at 1,500' AGL
  • Scattered at 18,000' AGL
Temperature
26°C / 79°F
Dewpoint
24°C / 75°F
Humidity
89%
Altimeter
29.79" Hg
Pressure
1008.92 hPa